Time;durP1;ratioP1;P1;durP2;ratioP2;P2;SDS_P1;SDS_P2;PMS_P1;PMS_P2;Temp;Humidity;BMP_temperature;BMP_pressure;BME280_temperature;BME280_humidity;BME280_pressure;Samples;Min_cycle;Max_cycle;Signal;HPM_P1;HPM_P2
2024/04/21 00:00:51;;;;;;;;;8.33;8.33;;;;;6.71;100.00;102163.34;5155442;27;44152;-82
2024/04/21 00:03:16;;;;;;;;;5.33;5.33;;;;;6.59;100.00;102159.81;5155052;27;52161;-82
2024/04/21 00:05:41;;;;;;;;;9.00;6.67;;;;;6.60;100.00;102166.78;5153606;27;43828;-82
2024/04/21 00:08:07;;;;;;;;;7.00;7.00;;;;;6.54;100.00;102157.50;5155553;27;43950;-82
2024/04/21 00:10:32;;;;;;;;;12.00;11.00;;;;;6.50;100.00;102160.47;5155299;27;43911;-82
2024/04/21 00:12:57;;;;;;;;;13.00;10.33;;;;;6.42;100.00;102153.09;5155144;27;43873;-82
2024/04/21 00:15:22;;;;;;;;;9.33;9.33;;;;;6.42;100.00;102155.75;5155347;27;43923;-82
2024/04/21 00:17:48;;;;;;;;;8.33;6.67;;;;;6.42;100.00;102153.97;5152551;27;44638;-81
2024/04/21 00:20:13;;;;;;;;;9.33;9.33;;;;;6.40;100.00;102155.00;5154837;27;47442;-82
2024/04/21 00:22:38;;;;;;;;;8.00;6.00;;;;;6.38;100.00;102156.94;5155380;27;43872;-82
2024/04/21 00:25:04;;;;;;;;;14.33;12.33;;;;;6.35;100.00;102151.88;5154720;27;47213;-81
2024/04/21 00:27:29;;;;;;;;;8.00;8.00;;;;;6.28;100.00;102151.47;5153277;27;44690;-82
2024/04/21 00:29:55;;;;;;;;;9.67;9.67;;;;;6.30;100.00;102150.41;5125574;27;46086;-81
2024/04/21 00:32:20;;;;;;;;;10.33;9.00;;;;;6.27;100.00;102141.84;5154955;27;43746;-82
2024/04/21 00:34:48;;;;;;;;;8.33;8.33;;;;;6.22;100.00;102142.19;5153223;27;45143;-82
2024/04/21 00:37:13;;;;;;;;;13.00;10.33;;;;;6.16;100.00;102125.00;5152654;27;45100;-82
2024/04/21 00:39:38;;;;;;;;;12.00;10.67;;;;;6.21;100.00;102132.59;5154733;27;43895;-82
2024/04/21 00:42:04;;;;;;;;;12.00;10.00;;;;;6.16;100.00;102134.69;5152997;27;43926;-82
2024/04/21 00:44:29;;;;;;;;;12.00;10.00;;;;;6.11;100.00;102136.84;5153090;27;43821;-82
2024/04/21 00:46:55;;;;;;;;;11.00;10.00;;;;;6.09;100.00;102126.41;5154607;27;44974;-82
2024/04/21 00:49:20;;;;;;;;;11.00;11.00;;;;;6.14;100.00;102134.00;5154324;27;45118;-81
2024/04/21 00:51:46;;;;;;;;;10.33;10.33;;;;;6.03;100.00;102116.25;5154615;27;43864;-81
2024/04/21 00:54:13;;;;;;;;;9.00;9.00;;;;;6.01;100.00;102110.22;5154906;27;43827;-82
2024/04/21 00:56:39;;;;;;;;;11.00;11.00;;;;;6.02;100.00;102123.31;5180109;27;44456;-82
2024/04/21 00:59:06;;;;;;;;;11.33;10.33;;;;;6.04;100.00;102123.22;5179724;27;44822;-81
2024/04/21 01:01:32;;;;;;;;;10.33;9.33;;;;;6.02;100.00;102118.03;5154341;27;43848;-82
2024/04/21 01:03:58;;;;;;;;;12.00;10.00;;;;;6.04;100.00;102120.59;5154707;27;43868;-82
2024/04/21 01:06:23;;;;;;;;;15.67;14.00;;;;;5.98;100.00;102121.84;5152457;27;44893;-82
2024/04/21 01:08:51;;;;;;;;;16.33;13.00;;;;;5.96;100.00;102109.72;5150535;27;45890;-82
2024/04/21 01:11:18;;;;;;;;;20.67;17.00;;;;;5.94;100.00;102105.41;5153737;27;43964;-82
2024/04/21 01:13:43;;;;;;;;;15.00;14.67;;;;;5.90;100.00;102103.91;5153975;27;43876;-82
2024/04/21 01:16:08;;;;;;;;;10.00;10.00;;;;;5.92;100.00;102104.66;5153682;27;43740;-82
2024/04/21 01:18:34;;;;;;;;;12.67;9.67;;;;;5.85;100.00;102092.88;5153692;27;44505;-82
2024/04/21 01:20:59;;;;;;;;;12.67;12.67;;;;;5.82;100.00;102095.72;5154284;27;43885;-82
2024/04/21 01:23:24;;;;;;;;;15.33;15.33;;;;;5.79;100.00;102085.38;5154159;27;43868;-82
2024/04/21 01:25:50;;;;;;;;;13.00;10.67;;;;;5.76;100.00;102088.22;5179489;27;44531;-82
2024/04/21 01:28:15;;;;;;;;;15.00;12.67;;;;;5.79;100.00;102093.28;5154082;27;49381;-83
2024/04/21 01:30:40;;;;;;;;;11.00;10.00;;;;;5.77;100.00;102084.63;5155755;27;44179;-82
2024/04/21 01:33:06;;;;;;;;;9.33;9.33;;;;;5.76;100.00;102085.59;5155770;27;43827;-82
2024/04/21 01:35:32;;;;;;;;;13.00;13.00;;;;;5.72;100.00;102084.13;5182579;27;44666;-82
2024/04/21 01:37:57;;;;;;;;;10.67;9.33;;;;;5.74;100.00;102087.50;5156115;27;44293;-82
2024/04/21 01:40:23;;;;;;;;;14.00;11.67;;;;;5.71;100.00;102088.56;5156692;27;43900;-82
2024/04/21 01:42:48;;;;;;;;;13.33;10.33;;;;;5.65;100.00;102079.28;5154999;27;43941;-82
2024/04/21 01:45:13;;;;;;;;;11.67;11.67;;;;;5.71;100.00;102080.66;5154867;27;43905;-82
2024/04/21 01:47:39;;;;;;;;;14.33;13.00;;;;;5.66;100.00;102073.06;5156779;27;45032;-82
2024/04/21 01:50:06;;;;;;;;;11.67;9.00;;;;;5.62;100.00;102071.59;5156520;27;43880;-82
2024/04/21 01:52:32;;;;;;;;;10.00;10.00;;;;;5.62;100.00;102068.94;5156926;27;43647;-81
2024/04/21 01:54:57;;;;;;;;;11.67;11.00;;;;;5.65;100.00;102078.44;5156567;27;43727;-82
2024/04/21 01:57:22;;;;;;;;;9.00;9.00;;;;;5.58;100.00;102061.34;5156543;27;45232;-82
2024/04/21 01:59:47;;;;;;;;;11.00;10.00;;;;;5.63;100.00;102077.72;5154141;27;54476;-82
2024/04/21 02:02:13;;;;;;;;;13.33;11.00;;;;;5.56;100.00;102059.69;5156527;27;43785;-82
2024/04/21 02:04:38;;;;;;;;;9.67;8.00;;;;;5.53;100.00;102051.13;5154775;27;44502;-82
2024/04/21 02:07:05;;;;;;;;;5.67;5.67;;;;;5.58;100.00;102054.31;5154433;27;51074;-82
2024/04/21 02:09:31;;;;;;;;;9.33;9.00;;;;;5.58;100.00;102056.94;5154837;27;43761;-82
2024/04/21 02:11:56;;;;;;;;;9.33;9.33;;;;;5.55;100.00;102052.72;5182431;27;43832;-82
2024/04/21 02:14:21;;;;;;;;;10.00;10.00;;;;;5.56;100.00;102051.78;5155993;27;44011;-82
2024/04/21 02:16:46;;;;;;;;;11.33;11.33;;;;;5.61;100.00;102054.09;5154538;27;45712;-82
2024/04/21 02:19:12;;;;;;;;;9.33;9.33;;;;;5.60;100.00;102070.84;5154699;27;43821;-82
2024/04/21 02:21:37;;;;;;;;;12.00;10.67;;;;;5.52;100.00;102052.09;5156461;27;43820;-82
2024/04/21 02:24:03;;;;;;;;;12.67;12.33;;;;;5.49;100.00;102055.81;5154677;27;49219;-82
2024/04/21 02:26:28;;;;;;;;;9.33;9.33;;;;;5.51;100.00;102058.31;5156307;27;43847;-82
2024/04/21 02:28:53;;;;;;;;;6.00;5.33;;;;;5.59;100.00;102055.97;5154212;27;49670;-82
2024/04/21 02:31:19;;;;;;;;;9.33;9.00;;;;;5.67;100.00;102058.94;5154545;27;43716;-82
2024/04/21 02:33:44;;;;;;;;;10.00;8.00;;;;;5.83;100.00;102063.09;5156321;27;44454;-83
2024/04/21 02:36:09;;;;;;;;;8.67;8.67;;;;;5.92;100.00;102070.34;5154475;27;45934;-82
2024/04/21 02:38:35;;;;;;;;;5.67;5.67;;;;;5.96;100.00;102051.66;5156028;27;43812;-82
2024/04/21 02:41:00;;;;;;;;;9.00;9.00;;;;;6.04;100.00;102054.59;5155780;27;43893;-82
2024/04/21 02:43:25;;;;;;;;;11.33;9.33;;;;;6.08;100.00;102052.59;5155971;27;43798;-82
2024/04/21 02:45:50;;;;;;;;;11.33;10.33;;;;;6.13;100.00;102058.38;5181264;27;54526;-83
2024/04/21 02:48:16;;;;;;;;;9.33;8.00;;;;;6.26;100.00;102061.78;5155726;27;43864;-83
2024/04/21 02:50:41;;;;;;;;;10.67;9.00;;;;;6.29;100.00;102060.75;5181338;27;48084;-82
2024/04/21 02:53:06;;;;;;;;;8.00;8.00;;;;;6.37;100.00;102061.00;5155790;27;47073;-82
2024/04/21 02:55:32;;;;;;;;;11.00;10.67;;;;;6.33;100.00;102043.72;5155973;27;43818;-82
2024/04/21 02:57:57;;;;;;;;;15.67;12.00;;;;;6.43;100.00;102049.13;5154319;27;43940;-82
2024/04/21 03:00:23;;;;;;;;;13.00;8.67;;;;;6.43;100.00;102041.22;5181522;27;43816;-82
2024/04/21 03:02:48;;;;;;;;;12.00;10.33;;;;;6.50;100.00;102045.06;5153786;27;52775;-82
2024/04/21 03:05:13;;;;;;;;;6.33;6.33;;;;;6.51;100.00;102033.56;5181432;27;50685;-82
2024/04/21 03:07:39;;;;;;;;;8.67;7.00;;;;;6.49;100.00;102042.56;5181735;27;43860;-82
2024/04/21 03:10:04;;;;;;;;;8.00;7.00;;;;;6.54;100.00;102033.34;5154028;27;43869;-82
2024/04/21 03:12:29;;;;;;;;;9.00;9.00;;;;;6.48;100.00;102030.31;5154376;27;44571;-82
2024/04/21 03:14:55;;;;;;;;;5.67;5.67;;;;;6.54;100.00;102030.69;5181129;27;45868;-82
2024/04/21 03:17:21;;;;;;;;;8.67;7.67;;;;;6.54;100.00;102028.06;5155263;27;43878;-83
2024/04/21 03:19:50;;;;;;;;;6.00;6.00;;;;;6.52;100.00;102019.41;5180351;27;43974;-82
2024/04/21 03:22:15;;;;;;;;;14.33;8.00;;;;;6.53;100.00;102026.34;5155814;27;43972;-82
2024/04/21 03:24:40;;;;;;;;;5.33;5.33;;;;;6.60;100.00;102032.03;5154612;27;44020;-82
2024/04/21 03:27:06;;;;;;;;;7.00;7.00;;;;;6.59;100.00;102033.00;5181092;27;52562;-83
2024/04/21 03:29:31;;;;;;;;;6.67;4.33;;;;;6.58;100.00;102028.66;5155907;27;43701;-82
2024/04/21 03:31:56;;;;;;;;;5.33;5.33;;;;;6.65;100.00;102039.63;5155487;27;54847;-82
2024/04/21 03:34:21;;;;;;;;;8.00;5.67;;;;;6.62;100.00;102019.56;5154602;27;45646;-83
2024/04/21 03:36:47;;;;;;;;;6.00;5.00;;;;;6.65;100.00;102013.19;5153836;27;43836;-83
2024/04/21 03:39:13;;;;;;;;;3.33;3.33;;;;;6.66;100.00;102014.88;5155600;27;43642;-82
2024/04/21 03:41:38;;;;;;;;;4.33;4.33;;;;;6.67;100.00;102013.91;5154136;27;44892;-82
2024/04/21 03:44:03;;;;;;;;;8.00;5.00;;;;;6.72;100.00;102009.13;5153427;27;52440;-82
2024/04/21 03:46:29;;;;;;;;;5.00;5.00;;;;;6.71;100.00;102009.25;5180890;27;45778;-82
2024/04/21 03:48:55;;;;;;;;;6.00;5.00;;;;;6.74;100.00;102009.00;5154073;27;43873;-82
2024/04/21 03:51:20;;;;;;;;;5.67;5.67;;;;;6.64;100.00;101996.50;5154149;27;43841;-83
2024/04/21 03:53:45;;;;;;;;;7.67;5.33;;;;;6.63;100.00;102000.09;5153698;27;47151;-83
2024/04/21 03:56:11;;;;;;;;;6.67;6.00;;;;;6.65;100.00;102008.72;5155831;27;43963;-82
2024/04/21 03:58:36;;;;;;;;;9.00;6.00;;;;;6.62;100.00;102010.78;5155676;27;43943;-83
2024/04/21 04:01:01;;;;;;;;;5.00;5.00;;;;;6.59;100.00;102000.44;5155509;27;44248;-83
2024/04/21 04:03:27;;;;;;;;;6.33;5.00;;;;;6.63;100.00;102007.16;5155103;27;43977;-82
2024/04/21 04:05:52;;;;;;;;;7.33;4.67;;;;;6.59;100.00;102011.00;5156436;27;43847;-83
2024/04/21 04:08:17;;;;;;;;;8.67;8.00;;;;;6.59;100.00;101997.81;5153902;27;44201;-83
2024/04/21 04:10:44;;;;;;;;;5.00;5.00;;;;;6.46;100.00;101987.34;5153464;27;49665;-83
2024/04/21 04:13:10;;;;;;;;;6.00;6.00;;;;;6.53;100.00;101994.66;5152834;27;46031;-83
2024/04/21 04:15:35;;;;;;;;;5.67;5.67;;;;;6.49;100.00;101984.47;5153100;27;44176;-83
2024/04/21 04:18:01;;;;;;;;;2.00;2.00;;;;;6.47;100.00;101991.66;5155414;27;43678;-82
2024/04/21 04:20:26;;;;;;;;;8.67;7.33;;;;;6.51;100.00;101999.22;5153324;27;44615;-82
2024/04/21 04:22:52;;;;;;;;;9.00;8.00;;;;;6.45;100.00;101986.50;5155299;27;43928;-82
2024/04/21 04:25:18;;;;;;;;;4.00;4.00;;;;;6.49;100.00;101993.22;5155027;27;51344;-82
2024/04/21 04:27:43;;;;;;;;;5.67;4.33;;;;;6.50;100.00;101996.72;5181017;27;43825;-82
2024/04/21 04:30:09;;;;;;;;;5.00;5.00;;;;;6.46;100.00;101988.16;5153410;27;44907;-82
2024/04/21 04:32:34;;;;;;;;;8.33;6.67;;;;;6.44;100.00;101993.56;5148285;27;46181;-82
2024/04/21 04:35:00;;;;;;;;;9.67;6.00;;;;;6.44;100.00;101993.56;5123353;27;43693;-83
2024/04/21 04:37:25;;;;;;;;;10.33;7.67;;;;;6.42;100.00;101992.00;5120256;27;44145;-83
2024/04/21 04:39:51;;;;;;;;;6.33;5.67;;;;;6.32;100.00;101987.41;5149659;27;44049;-82
2024/04/21 04:42:16;;;;;;;;;5.00;4.33;;;;;6.28;100.00;101983.31;5180643;27;46067;-81
2024/04/21 04:44:41;;;;;;;;;5.00;5.00;;;;;6.29;100.00;101984.16;5153081;27;43950;-83
2024/04/21 04:47:07;;;;;;;;;6.00;5.00;;;;;6.40;100.00;101999.19;5156837;27;43737;-81
2024/04/21 04:49:32;;;;;;;;;6.00;6.00;;;;;6.37;100.00;101989.69;5153155;27;52770;-82
2024/04/21 04:52:00;;;;;;;;;5.33;4.67;;;;;6.38;100.00;101980.81;5153176;27;45743;-81
2024/04/21 04:54:25;;;;;;;;;0.67;0.67;;;;;6.44;100.00;101983.00;5155622;27;43869;-83
2024/04/21 04:56:54;;;;;;;;;3.00;2.00;;;;;6.46;100.00;101974.97;5156472;27;44019;-85
2024/04/21 04:59:21;;;;;;;;;5.00;5.00;;;;;6.49;100.00;101979.19;5153817;27;44687;-82
2024/04/21 05:01:47;;;;;;;;;5.00;3.00;;;;;6.44;100.00;101975.06;5153347;27;44944;-83
2024/04/21 05:04:12;;;;;;;;;6.33;6.33;;;;;6.55;100.00;101987.47;5156855;27;43904;-83
2024/04/21 05:06:38;;;;;;;;;3.67;3.67;;;;;6.54;100.00;101991.06;5156415;27;43811;-82
2024/04/21 05:09:04;;;;;;;;;3.00;3.00;;;;;6.51;100.00;101985.19;5156608;27;45781;-83
2024/04/21 05:11:30;;;;;;;;;5.00;4.00;;;;;6.55;100.00;101998.03;5155392;27;45485;-82
2024/04/21 05:13:56;;;;;;;;;5.00;5.00;;;;;6.58;100.00;101991.66;5155485;27;43923;-81
2024/04/21 05:16:22;;;;;;;;;4.67;4.67;;;;;6.57;100.00;101998.78;5157347;27;44011;-82
2024/04/21 05:18:47;;;;;;;;;10.00;6.00;;;;;6.59;100.00;101993.38;5182850;27;44733;-82
2024/04/21 05:21:13;;;;;;;;;7.33;4.00;;;;;6.59;100.00;101996.03;5157282;27;48838;-83
2024/04/21 05:23:38;;;;;;;;;3.67;3.67;;;;;6.59;100.00;101996.03;5156541;27;44023;-82
2024/04/21 05:26:03;;;;;;;;;7.67;6.00;;;;;6.60;100.00;101996.84;5156155;27;44644;-84
2024/04/21 05:28:29;;;;;;;;;5.33;4.67;;;;;6.62;100.00;101994.94;5156050;27;45810;-82
2024/04/21 05:30:57;;;;;;;;;3.00;3.00;;;;;6.64;100.00;101995.63;5158594;27;43833;-83
2024/04/21 05:33:22;;;;;;;;;9.00;6.33;;;;;6.59;100.00;101998.66;5155318;27;43919;-82
2024/04/21 05:35:48;;;;;;;;;4.00;4.00;;;;;6.46;100.00;101988.16;5156166;27;43931;-80
2024/04/21 05:38:13;;;;;;;;;4.00;4.00;;;;;6.46;100.00;101997.91;5156951;27;43923;-83
2024/04/21 05:40:38;;;;;;;;;2.67;2.67;;;;;6.46;100.00;102000.53;5155689;27;45965;-82
2024/04/21 05:43:04;;;;;;;;;7.33;4.67;;;;;6.47;100.00;102005.72;5183710;27;43971;-85
2024/04/21 05:45:29;;;;;;;;;6.00;3.67;;;;;6.47;100.00;101994.28;5157101;27;43882;-82
2024/04/21 05:47:55;;;;;;;;;4.67;4.67;;;;;6.56;100.00;102001.53;5182874;27;45466;-82
2024/04/21 05:50:20;;;;;;;;;5.33;4.67;;;;;6.58;100.00;101999.59;5157256;27;44897;-81
2024/04/21 05:52:45;;;;;;;;;5.00;4.67;;;;;6.60;100.00;101981.84;5182686;27;46172;-81
2024/04/21 05:55:11;;;;;;;;;4.33;4.33;;;;;6.64;100.00;101980.63;5157339;27;43881;-81
2024/04/21 05:57:36;;;;;;;;;4.00;4.00;;;;;6.71;100.00;101991.59;5157039;27;49007;-83
2024/04/21 06:00:01;;;;;;;;;3.33;3.33;;;;;6.75;100.00;101989.53;5155643;27;45566;-83
2024/04/21 06:02:27;;;;;;;;;3.67;3.67;;;;;6.80;100.00;101988.22;5156806;27;43833;-82
2024/04/21 06:04:52;;;;;;;;;4.00;4.00;;;;;6.88;100.00;101990.28;5155671;27;45963;-85
2024/04/21 06:07:17;;;;;;;;;3.33;3.33;;;;;6.99;100.00;102007.94;5155237;27;44798;-85
2024/04/21 06:09:46;;;;;;;;;4.33;3.33;;;;;7.05;100.00;101996.91;5157128;27;44103;-84
2024/04/21 06:12:11;;;;;;;;;4.33;4.00;;;;;7.08;100.00;101987.88;5155211;27;43867;-85
2024/04/21 06:14:36;;;;;;;;;4.00;3.00;;;;;7.12;100.00;101989.31;5156937;27;43892;-86
2024/04/21 06:17:01;;;;;;;;;3.33;3.33;;;;;7.23;100.00;102003.50;5182719;27;48871;-83
2024/04/21 06:19:27;;;;;;;;;5.33;4.00;;;;;7.30;100.00;102004.69;5156985;27;44319;-83
2024/04/21 06:21:52;;;;;;;;;4.67;4.33;;;;;7.24;100.00;101981.41;5155468;27;43860;-85
2024/04/21 06:24:19;;;;;;;;;6.00;5.00;;;;;7.29;100.00;101993.28;5182813;27;43844;-86
2024/04/21 06:26:45;;;;;;;;;4.67;4.67;;;;;7.37;100.00;102000.63;5157743;27;43872;-85
2024/04/21 06:29:10;;;;;;;;;5.33;3.33;;;;;7.42;100.00;101993.16;5195318;27;45897;-83
2024/04/21 06:31:35;;;;;;;;;3.67;3.67;;;;;7.50;100.00;101991.69;5160070;27;47224;-83
2024/04/21 06:34:01;;;;;;;;;6.00;4.00;;;;;7.44;100.00;101980.66;5157876;27;43736;-84
2024/04/21 06:36:27;;;;;;;;;4.33;4.33;;;;;7.65;100.00;102001.06;5156857;27;51053;-83
2024/04/21 06:38:53;;;;;;;;;4.00;4.00;;;;;7.60;100.00;101982.03;5155943;27;45270;-84
2024/04/21 06:41:18;;;;;;;;;3.00;3.00;;;;;7.67;100.00;101991.16;5157337;27;43203;-83
2024/04/21 06:43:43;;;;;;;;;6.00;3.00;;;;;7.70;100.00;101988.28;5154896;27;43786;-80
2024/04/21 06:46:11;;;;;;;;;5.00;4.00;;;;;7.81;100.00;101987.41;5155612;27;45700;-81
2024/04/21 06:48:37;;;;;;;;;3.00;3.00;;;;;7.88;100.00;101992.19;5156426;27;43868;-83
2024/04/21 06:51:02;;;;;;;;;4.00;2.00;;;;;7.89;100.00;101984.13;5154082;27;43905;-84
2024/04/21 06:53:30;;;;;;;;;4.33;3.00;;;;;7.96;100.00;101985.31;5154331;27;43905;-82
2024/04/21 06:55:55;;;;;;;;;2.33;2.33;;;;;7.94;100.00;101974.00;5155859;27;43888;-84
2024/04/21 06:58:20;;;;;;;;;3.00;3.00;;;;;8.03;100.00;101984.81;5154463;27;45679;-82
2024/04/21 07:00:46;;;;;;;;;4.00;2.67;;;;;8.09;100.00;101990.44;5181205;27;43847;-82
2024/04/21 07:03:11;;;;;;;;;2.00;2.00;;;;;8.00;100.00;101980.63;5157386;27;44401;-87
2024/04/21 07:05:36;;;;;;;;;4.00;3.00;;;;;7.94;100.00;101960.75;5155427;27;44697;-84
2024/04/21 07:08:02;;;;;;;;;3.00;3.00;;;;;8.06;100.00;101976.63;5156259;27;43845;-84
2024/04/21 07:10:27;;;;;;;;;2.00;2.00;;;;;8.10;100.00;101972.75;5156560;27;43804;-83
2024/04/21 07:12:53;;;;;;;;;2.00;2.00;;;;;8.27;100.00;101989.03;5156125;27;43646;-82
2024/04/21 07:15:18;;;;;;;;;3.00;3.00;;;;;8.28;100.00;101980.97;5156027;27;44094;-83
2024/04/21 07:17:43;;;;;;;;;1.00;1.00;;;;;8.24;100.00;101970.75;5155708;27;49580;-83
2024/04/21 07:20:09;;;;;;;;;2.00;2.00;;;;;8.21;100.00;101970.03;5154433;27;43887;-83
2024/04/21 07:22:34;;;;;;;;;2.00;2.00;;;;;8.31;100.00;101991.31;5154451;27;43662;-81
2024/04/21 07:25:01;;;;;;;;;2.00;2.00;;;;;8.33;100.00;101997.28;5152304;27;45982;-81
2024/04/21 07:27:26;;;;;;;;;1.00;1.00;;;;;8.37;100.00;101991.75;5153547;27;46866;-82
2024/04/21 07:29:52;;;;;;;;;2.67;2.67;;;;;8.39;100.00;101987.16;5181552;27;43867;-84
2024/04/21 07:32:17;;;;;;;;;3.00;2.00;;;;;8.52;100.00;101987.81;5167290;27;43845;-82
2024/04/21 07:34:43;;;;;;;;;1.00;1.00;;;;;8.59;100.00;101990.81;5175980;27;44166;-82
2024/04/21 07:37:08;;;;;;;;;3.00;3.00;;;;;8.68;100.00;102002.47;5170731;27;43899;-80
2024/04/21 07:39:34;;;;;;;;;3.00;3.00;;;;;8.72;100.00;101985.31;5169801;27;43877;-81
2024/04/21 07:41:59;;;;;;;;;2.33;2.00;;;;;8.74;100.00;101975.41;5154009;27;43842;-84
2024/04/21 07:44:24;;;;;;;;;2.00;1.00;;;;;8.70;100.00;101955.44;5153833;27;44984;-86
2024/04/21 07:46:50;;;;;;;;;2.00;2.00;;;;;8.83;100.00;101973.78;5181037;27;47064;-82
2024/04/21 07:49:15;;;;;;;;;4.67;3.00;;;;;8.90;100.00;101966.13;5155462;27;44035;-79
2024/04/21 07:51:40;;;;;;;;;1.33;1.33;;;;;8.95;100.00;101980.66;5153731;27;43877;-81
2024/04/21 07:54:06;;;;;;;;;3.00;1.00;;;;;9.02;100.00;101974.84;5153721;27;47594;-83
2024/04/21 07:56:31;;;;;;;;;3.00;3.00;;;;;9.12;100.00;101977.50;5153792;27;45435;-81
2024/04/21 07:58:57;;;;;;;;;3.67;2.00;;;;;9.11;100.00;101976.69;5155300;27;43714;-81
2024/04/21 08:01:22;;;;;;;;;2.00;1.00;;;;;9.15;100.00;101975.44;5155533;27;43853;-83
2024/04/21 08:03:47;;;;;;;;;2.33;2.33;;;;;9.18;100.00;101985.78;5155679;27;43845;-83
2024/04/21 08:06:13;;;;;;;;;2.00;2.00;;;;;9.13;100.00;101977.38;5155375;27;44930;-81
2024/04/21 08:08:38;;;;;;;;;2.00;2.00;;;;;9.15;100.00;101975.44;5154161;27;43674;-83
2024/04/21 08:11:03;;;;;;;;;1.00;1.00;;;;;9.13;100.00;101965.94;5162549;27;44058;-81
2024/04/21 08:13:29;;;;;;;;;2.00;2.00;;;;;9.19;100.00;101976.84;5171640;27;44775;-81
2024/04/21 08:16:00;;;;;;;;;2.00;1.67;;;;;9.18;100.00;101959.25;5169991;27;44389;-83
2024/04/21 08:18:26;;;;;;;;;2.00;2.00;;;;;9.39;100.00;101984.03;5168392;27;43896;-81
2024/04/21 08:20:51;;;;;;;;;1.33;1.33;;;;;9.37;100.00;101978.03;5136898;27;45191;-83
2024/04/21 08:23:16;;;;;;;;;1.33;1.33;;;;;9.38;100.00;101971.75;5158171;27;44398;-82
2024/04/21 08:25:45;;;;;;;;;2.00;2.00;;;;;9.54;100.00;101973.84;5173093;27;46882;-82
2024/04/21 08:28:10;;;;;;;;;2.67;2.00;;;;;9.65;100.00;101965.78;5163461;27;43658;-81
2024/04/21 08:30:36;;;;;;;;;2.00;2.00;;;;;9.73;100.00;101963.28;5159313;27;45331;-79
2024/04/21 08:33:01;;;;;;;;;2.67;1.67;;;;;9.84;100.00;101974.75;5177048;27;44697;-84
2024/04/21 08:35:27;;;;;;;;;2.33;2.00;;;;;9.78;100.00;101962.00;5178970;27;45720;-83
2024/04/21 08:37:52;;;;;;;;;2.00;1.67;;;;;9.76;100.00;101958.69;5150838;27;44016;-83
2024/04/21 08:40:18;;;;;;;;;3.00;2.00;;;;;9.63;100.00;101927.06;5152046;27;44024;-81
2024/04/21 08:42:44;;;;;;;;;2.00;2.00;;;;;9.76;100.00;101937.44;5154154;27;43985;-83
2024/04/21 08:45:10;;;;;;;;;3.00;3.00;;;;;9.95;100.00;101947.22;5158452;27;44990;-84
2024/04/21 08:47:35;;;;;;;;;4.67;2.00;;;;;10.10;100.00;101960.91;5176194;27;44309;-81
2024/04/21 08:50:02;;;;;;;;;1.00;1.00;;;;;10.17;100.00;101964.66;5152135;27;43947;-79
2024/04/21 08:52:32;;;;;;;;;2.33;2.33;;;;;10.17;100.00;101970.00;5165819;27;44507;-80
2024/04/21 08:54:59;;;;;;;;;3.00;2.00;;;;;10.22;100.00;101983.69;5185027;27;46126;-80
2024/04/21 08:57:25;;;;;;;;;2.67;1.00;;;;;10.19;100.00;101976.00;5186470;27;43863;-79
2024/04/21 08:59:56;;;;;;;;;1.33;1.33;;;;;10.05;100.00;101969.28;5179943;27;43920;-80
2024/04/21 09:02:23;;;;;;;;;3.00;3.00;;;;;9.98;100.00;101974.34;5119506;27;44782;-79
2024/04/21 09:04:50;;;;;;;;;2.33;2.33;;;;;9.87;100.00;101963.84;5120308;27;46061;-81
2024/04/21 09:07:16;;;;;;;;;3.67;2.00;;;;;9.75;100.00;101957.00;5152067;27;43957;-81
2024/04/21 09:09:45;;;;;;;;;2.00;2.00;;;;;9.80;100.00;101982.16;5151461;27;44023;-81
2024/04/21 09:12:14;;;;;;;;;2.67;1.67;;;;;9.72;100.00;101966.06;5153882;27;43975;-81
2024/04/21 09:14:41;;;;;;;;;2.00;2.00;;;;;9.73;100.00;101954.50;5153392;27;43809;-83
2024/04/21 09:17:06;;;;;;;;;1.00;1.00;;;;;9.88;100.00;101956.72;5151723;27;43773;-80
2024/04/21 09:19:31;;;;;;;;;2.00;2.00;;;;;9.92;100.00;101935.06;5194354;27;44291;-83
2024/04/21 09:21:57;;;;;;;;;1.00;1.00;;;;;10.19;100.00;101946.78;5153903;27;44814;-84
2024/04/21 09:24:23;;;;;;;;;3.00;2.33;;;;;10.38;100.00;101954.88;5153913;27;44378;-83
2024/04/21 09:26:50;;;;;;;;;1.67;1.67;;;;;10.46;100.00;101961.16;5131830;27;43788;-82
2024/04/21 09:29:18;;;;;;;;;2.33;2.33;;;;;10.39;100.00;101954.72;5153748;27;43761;-80
2024/04/21 09:31:43;;;;;;;;;3.67;3.00;;;;;10.28;100.00;101941.59;5152796;27;44044;-79
2024/04/21 09:34:11;;;;;;;;;2.00;2.00;;;;;10.22;100.00;101951.81;5152073;27;44329;-79
2024/04/21 09:36:37;;;;;;;;;2.00;2.00;;;;;10.03;100.00;101926.09;5148701;27;43944;-82
2024/04/21 09:39:03;;;;;;;;;1.33;1.33;;;;;10.00;100.00;101921.09;5152535;27;43929;-76
2024/04/21 09:41:29;;;;;;;;;4.00;1.67;;;;;10.07;100.00;101945.25;5151211;27;44858;-80
2024/04/21 09:43:55;;;;;;;;;1.33;1.33;;;;;10.03;100.00;101926.09;5125299;27;44911;-81
2024/04/21 09:46:21;;;;;;;;;1.67;1.00;;;;;10.25;100.00;101944.53;5171820;27;44250;-83
2024/04/21 09:48:50;;;;;;;;;1.00;1.00;;;;;10.30;100.00;101929.81;5158817;27;44013;-80
2024/04/21 09:51:16;;;;;;;;;3.00;3.00;;;;;10.50;100.00;101927.16;5156801;27;45090;-80
2024/04/21 09:53:45;;;;;;;;;3.67;2.00;;;;;10.79;100.00;101936.84;5140964;27;44379;-80
2024/04/21 09:56:18;;;;;;;;;2.33;2.33;;;;;10.93;100.00;101922.22;5191992;27;44003;-81
2024/04/21 09:58:52;;;;;;;;;1.67;1.67;;;;;11.16;100.00;101924.50;5175256;27;44000;-80
2024/04/21 10:01:39;;;;;;;;;3.33;3.00;;;;;11.31;100.00;101918.69;5167046;27;43929;-80
2024/04/21 10:04:14;;;;;;;;;5.00;3.33;;;;;11.23;97.79;101920.25;5193607;27;44308;-82
2024/04/21 10:06:41;;;;;;;;;2.33;1.00;;;;;11.04;96.69;101917.72;5165120;27;44060;-81
2024/04/21 10:09:09;;;;;;;;;1.33;1.33;;;;;10.93;99.27;101911.56;5123909;27;44030;-83
2024/04/21 10:11:35;;;;;;;;;3.00;3.00;;;;;10.81;99.37;101907.47;5123620;27;43890;-81
2024/04/21 10:14:01;;;;;;;;;3.33;3.33;;;;;10.77;100.00;101898.09;5122383;27;46828;-83
2024/04/21 10:16:30;;;;;;;;;1.33;1.33;;;;;10.98;100.00;101896.03;5134997;27;43760;-81
2024/04/21 10:19:05;;;;;;;;;1.00;1.00;;;;;11.23;100.00;101893.63;5156635;27;43772;-81
2024/04/21 10:21:31;;;;;;;;;1.00;1.00;;;;;11.52;98.27;101890.94;5181653;27;44951;-79
2024/04/21 10:23:56;;;;;;;;;6.00;4.00;;;;;11.87;97.46;101889.22;5155049;27;45052;-80
2024/04/21 10:26:21;;;;;;;;;1.67;1.67;;;;;12.08;97.97;101886.25;5181972;27;43880;-81
2024/04/21 10:28:47;;;;;;;;;2.33;2.33;;;;;12.21;96.63;101885.81;5154820;27;43851;-80
2024/04/21 10:31:12;;;;;;;;;3.00;1.67;;;;;12.33;96.30;101881.06;5160478;27;44016;-82
2024/04/21 10:33:42;;;;;;;;;1.33;1.00;;;;;12.39;94.04;101884.91;5156698;27;43862;-81
2024/04/21 10:36:20;;;;;;;;;1.00;1.00;;;;;12.27;92.13;101891.53;5156185;27;43899;-79
2024/04/21 10:38:55;;;;;;;;;3.00;1.67;;;;;12.08;92.92;101866.75;5155622;27;43873;-80
2024/04/21 10:41:21;;;;;;;;;1.33;1.33;;;;;12.08;92.06;101894.22;5155770;27;44274;-82
2024/04/21 10:43:47;;;;;;;;;2.00;2.00;;;;;11.94;92.44;101890.25;5155959;27;44511;-80
2024/04/21 10:46:13;;;;;;;;;3.67;3.00;;;;;11.71;92.23;101888.06;5181546;27;43884;-83
2024/04/21 10:48:38;;;;;;;;;1.33;1.33;;;;;11.78;94.83;101890.13;5154446;27;43865;-83
2024/04/21 10:51:04;;;;;;;;;3.00;1.33;;;;;11.65;93.62;101861.25;5159130;27;45730;-84
2024/04/21 10:53:30;;;;;;;;;2.00;2.00;;;;;11.58;94.29;101834.38;5168866;27;45917;-81
2024/04/21 10:55:56;;;;;;;;;2.00;2.00;;;;;11.90;95.92;101866.75;5158142;27;43920;-82
2024/04/21 10:58:22;;;;;;;;;2.00;2.00;;;;;11.97;94.99;101838.50;5153011;27;44046;-82
2024/04/21 11:00:47;;;;;;;;;3.00;2.00;;;;;12.07;94.26;101835.78;5155432;27;44023;-83
2024/04/21 11:03:14;;;;;;;;;2.00;2.00;;;;;12.02;95.10;101801.56;5152787;27;45696;-82
2024/04/21 11:06:00;;;;;;;;;2.00;2.00;;;;;12.21;95.32;101803.19;5144227;27;43747;-84
2024/04/21 11:08:27;;;;;;;;;1.67;1.67;;;;;12.32;91.77;101815.41;5151847;27;44607;-82
2024/04/21 11:10:53;;;;;;;;;4.67;4.00;;;;;12.45;87.75;101862.13;5164616;27;44892;-84
2024/04/21 11:13:18;;;;;;;;;2.67;2.33;;;;;12.22;91.78;101884.00;5193132;27;46675;-79
2024/04/21 11:15:43;;;;;;;;;4.00;3.00;;;;;11.92;94.15;101883.44;5153294;27;44005;-82